Time;durP1;ratioP1;P1;durP2;ratioP2;P2;SDS_P1;SDS_P2;PMS_P1;PMS_P2;Temp;Humidity;BMP_temperature;BMP_pressure;BME280_temperature;BME280_humidity;BME280_pressure;Samples;Min_cycle;Max_cycle;Signal;HPM_P1;HPM_P2
2023/09/14 00:00:51;;;;;;;11.18;3.33;;;13.80;99.90;;;;;;5047632;28;20040;-55
2023/09/14 00:03:17;;;;;;;6.63;2.97;;;13.80;99.90;;;;;;5042783;28;20687;-53
2023/09/14 00:05:44;;;;;;;4.88;2.03;;;13.80;99.90;;;;;;5051337;28;20055;-55
2023/09/14 00:08:12;;;;;;;8.65;2.80;;;13.80;99.90;;;;;;5051707;28;20522;-55
2023/09/14 00:10:38;;;;;;;6.90;2.60;;;13.80;99.90;;;;;;5060347;28;20049;-52
2023/09/14 00:13:04;;;;;;;4.50;2.35;;;13.70;99.90;;;;;;5055111;28;20515;-55
2023/09/14 00:15:30;;;;;;;7.57;2.20;;;13.70;99.90;;;;;;5055253;28;20140;-55
2023/09/14 00:17:56;;;;;;;7.78;2.40;;;13.70;99.90;;;;;;5038403;28;20115;-55
2023/09/14 00:20:24;;;;;;;6.97;2.08;;;13.70;99.90;;;;;;5055753;28;20060;-52
2023/09/14 00:22:51;;;;;;;4.07;2.17;;;13.70;99.90;;;;;;5044179;28;20048;-53
2023/09/14 00:25:18;;;;;;;6.95;2.83;;;13.70;99.90;;;;;;5059809;28;20395;-52
2023/09/14 00:27:43;;;;;;;5.97;2.97;;;13.70;99.90;;;;;;5054704;28;20052;-56
2023/09/14 00:30:10;;;;;;;6.72;2.50;;;13.70;99.90;;;;;;5055637;28;20544;-53
2023/09/14 00:32:39;;;;;;;5.15;2.25;;;13.70;99.90;;;;;;5059753;28;20045;-56
2023/09/14 00:35:15;;;;;;;5.40;3.10;;;13.70;99.90;;;;;;5063818;28;20059;-55
2023/09/14 00:37:41;;;;;;;5.30;2.25;;;13.80;99.90;;;;;;5058201;28;20125;-55
2023/09/14 00:40:10;;;;;;;7.47;2.70;;;13.80;99.90;;;;;;5048785;28;20426;-55
2023/09/14 00:42:54;;;;;;;6.00;2.50;;;13.70;99.90;;;;;;5061295;28;20531;-55
2023/09/14 00:45:21;;;;;;;7.35;2.50;;;13.80;99.90;;;;;;5061173;28;20043;-52
2023/09/14 00:47:51;;;;;;;6.53;2.97;;;13.70;99.90;;;;;;5042277;28;20075;-55
2023/09/14 00:50:18;;;;;;;4.00;2.78;;;13.70;99.90;;;;;;5060276;28;20048;-54
2023/09/14 00:52:46;;;;;;;5.70;2.55;;;13.70;99.90;;;;;;5047177;28;20036;-56
2023/09/14 00:55:19;;;;;;;4.15;2.13;;;13.70;99.90;;;;;;5064336;28;20053;-54
2023/09/14 00:57:47;;;;;;;6.65;2.45;;;13.70;99.90;;;;;;5064448;28;20101;-53
2023/09/14 01:00:14;;;;;;;7.03;3.08;;;13.70;99.90;;;;;;5062961;28;20041;-56
2023/09/14 01:02:40;;;;;;;5.65;2.83;;;13.70;99.90;;;;;;5062888;28;20059;-53
2023/09/14 01:05:07;;;;;;;4.15;2.38;;;13.60;99.90;;;;;;5061329;28;20043;-55
2023/09/14 01:07:33;;;;;;;5.35;2.67;;;13.60;99.90;;;;;;5062943;28;20075;-55
2023/09/14 01:10:00;;;;;;;6.18;2.85;;;13.60;99.90;;;;;;5053942;28;20530;-55
2023/09/14 01:12:26;;;;;;;4.25;2.13;;;13.60;99.90;;;;;;5044853;28;20180;-55
2023/09/14 01:15:22;;;;;;;5.28;2.55;;;13.60;99.90;;;;;;5073286;28;21400;-56
2023/09/14 01:18:15;;;;;;;3.88;2.00;;;13.60;99.90;;;;;;5044720;28;20129;-55
2023/09/14 01:20:52;;;;;;;6.18;2.22;;;13.60;99.90;;;;;;5046095;28;20089;-55
2023/09/14 01:23:18;;;;;;;5.30;2.65;;;13.60;99.90;;;;;;5046469;28;20102;-55
2023/09/14 01:25:46;;;;;;;4.45;2.45;;;13.60;99.90;;;;;;5060419;28;20403;-55
2023/09/14 01:28:14;;;;;;;5.93;2.33;;;13.50;99.90;;;;;;5052797;28;20063;-56
2023/09/14 01:30:41;;;;;;;8.25;2.85;;;13.50;99.90;;;;;;5060976;28;20036;-53
2023/09/14 01:33:10;;;;;;;8.65;2.50;;;13.40;99.90;;;;;;5059370;28;20522;-56
2023/09/14 01:36:00;;;;;;;6.68;2.70;;;13.30;99.90;;;;;;5061565;28;20064;-54
2023/09/14 01:38:28;;;;;;;5.95;2.60;;;13.20;99.90;;;;;;5058402;28;20041;-55
2023/09/14 01:40:55;;;;;;;7.07;2.45;;;13.10;99.90;;;;;;5063624;28;20720;-53
2023/09/14 01:43:20;;;;;;;5.53;2.40;;;13.10;99.90;;;;;;5064171;28;20071;-55
2023/09/14 01:45:47;;;;;;;3.92;2.22;;;12.90;99.90;;;;;;5056771;28;20064;-55
2023/09/14 01:48:17;;;;;;;5.88;2.70;;;12.90;99.90;;;;;;5065414;28;20536;-53
2023/09/14 01:50:43;;;;;;;4.95;2.58;;;12.80;99.90;;;;;;5057380;28;20654;-53
2023/09/14 01:53:10;;;;;;;5.82;2.88;;;12.80;99.90;;;;;;5042735;28;20032;-55
2023/09/14 01:55:35;;;;;;;5.88;2.67;;;12.70;99.90;;;;;;5047486;28;20036;-53
2023/09/14 01:58:01;;;;;;;6.45;2.47;;;12.70;99.90;;;;;;5060547;28;20484;-53
2023/09/14 02:00:27;;;;;;;4.50;2.42;;;12.60;99.90;;;;;;5063386;28;20077;-55
2023/09/14 02:02:53;;;;;;;5.05;2.17;;;12.60;99.90;;;;;;5041530;28;20450;-56
2023/09/14 02:05:19;;;;;;;7.28;2.53;;;12.50;99.90;;;;;;5052406;28;20040;-56
2023/09/14 02:07:46;;;;;;;4.05;2.20;;;12.50;99.90;;;;;;5061244;28;20041;-56
2023/09/14 02:10:13;;;;;;;5.07;2.10;;;12.50;99.90;;;;;;5060120;28;20045;-55
2023/09/14 02:12:39;;;;;;;6.30;2.40;;;12.40;99.90;;;;;;5059838;28;20115;-53
2023/09/14 02:15:08;;;;;;;3.65;2.42;;;12.40;99.90;;;;;;5077763;28;20128;-55
2023/09/14 02:17:34;;;;;;;5.57;2.42;;;12.40;99.90;;;;;;5057406;28;20045;-55
2023/09/14 02:20:00;;;;;;;7.85;2.60;;;12.40;99.90;;;;;;5056665;28;20121;-55
2023/09/14 02:22:25;;;;;;;4.63;2.40;;;12.40;99.90;;;;;;5036880;28;20052;-54
2023/09/14 02:24:51;;;;;;;4.03;2.58;;;12.30;99.90;;;;;;5044713;28;20056;-55
2023/09/14 02:27:17;;;;;;;4.15;2.35;;;12.30;99.90;;;;;;5045529;28;20120;-55
2023/09/14 02:29:43;;;;;;;7.93;2.60;;;12.30;99.90;;;;;;5047905;28;20033;-54
2023/09/14 02:32:09;;;;;;;7.18;2.67;;;12.30;99.90;;;;;;5045609;28;20108;-56
2023/09/14 02:34:34;;;;;;;7.05;2.67;;;12.20;99.90;;;;;;5056153;28;20033;-56
2023/09/14 02:37:02;;;;;;;2.88;2.13;;;12.20;99.90;;;;;;5073638;28;20040;-57
2023/09/14 02:39:28;;;;;;;3.22;2.10;;;12.20;99.90;;;;;;5042977;28;20112;-57
2023/09/14 02:41:53;;;;;;;7.22;2.33;;;12.10;99.90;;;;;;5049023;28;20036;-56
2023/09/14 02:44:19;;;;;;;6.25;2.33;;;12.10;99.90;;;;;;5056474;28;20033;-55
2023/09/14 02:46:45;;;;;;;3.20;2.10;;;12.00;99.90;;;;;;5054386;28;20143;-56
2023/09/14 02:49:10;;;;;;;3.17;2.10;;;12.00;99.90;;;;;;5045060;28;20099;-53
2023/09/14 02:51:36;;;;;;;3.00;2.05;;;11.90;99.90;;;;;;5060706;28;20029;-56
2023/09/14 02:54:02;;;;;;;7.25;2.10;;;12.00;99.90;;;;;;5056466;28;20536;-55
2023/09/14 02:56:28;;;;;;;4.65;2.80;;;12.00;99.90;;;;;;5064989;28;20613;-56
2023/09/14 02:58:54;;;;;;;4.53;2.30;;;11.90;99.90;;;;;;5042115;28;20071;-54
2023/09/14 03:01:20;;;;;;;3.88;1.83;;;11.80;99.90;;;;;;5050610;28;20032;-55
2023/09/14 03:03:47;;;;;;;5.80;2.47;;;11.80;99.90;;;;;;5052170;28;20046;-55
2023/09/14 03:06:13;;;;;;;2.95;1.70;;;11.80;99.90;;;;;;5055801;28;20064;-56
2023/09/14 03:08:38;;;;;;;3.08;2.13;;;11.80;99.90;;;;;;5043423;28;20570;-55
2023/09/14 03:11:05;;;;;;;3.78;2.25;;;11.70;99.90;;;;;;5062286;28;20036;-53
2023/09/14 03:13:31;;;;;;;4.90;2.33;;;11.60;99.90;;;;;;5060823;28;20036;-55
2023/09/14 03:16:00;;;;;;;4.93;1.85;;;11.60;99.90;;;;;;5061081;28;20067;-55
2023/09/14 03:18:26;;;;;;;4.13;1.70;;;11.60;99.90;;;;;;5063211;28;20043;-55
2023/09/14 03:20:54;;;;;;;3.17;1.98;;;11.70;99.90;;;;;;5061106;28;20048;-56
2023/09/14 03:23:21;;;;;;;3.65;1.83;;;11.70;99.90;;;;;;5058532;28;20044;-56
2023/09/14 03:25:48;;;;;;;5.05;2.15;;;11.60;99.90;;;;;;5049678;28;20053;-55
2023/09/14 03:28:15;;;;;;;5.05;2.50;;;11.60;99.90;;;;;;5059755;28;20041;-55
2023/09/14 03:30:40;;;;;;;3.33;1.63;;;11.50;99.90;;;;;;5059976;28;20040;-55
2023/09/14 03:33:07;;;;;;;2.83;1.65;;;11.50;99.90;;;;;;5059069;28;20036;-55
2023/09/14 03:35:32;;;;;;;5.40;1.80;;;11.50;99.90;;;;;;5040516;28;20067;-54
2023/09/14 03:37:58;;;;;;;4.97;1.80;;;11.50;99.90;;;;;;5054830;28;20068;-55
2023/09/14 03:40:24;;;;;;;5.80;1.60;;;11.50;99.90;;;;;;5061055;28;20518;-55
2023/09/14 03:42:50;;;;;;;3.95;1.50;;;11.50;99.90;;;;;;5020536;28;20044;-56
2023/09/14 03:45:16;;;;;;;3.22;1.80;;;11.50;99.90;;;;;;5058873;28;20062;-55
2023/09/14 03:47:42;;;;;;;3.88;1.85;;;11.50;99.90;;;;;;5056775;28;20511;-54
2023/09/14 03:50:09;;;;;;;4.47;2.50;;;11.50;99.90;;;;;;5056353;28;20484;-55
2023/09/14 03:52:35;;;;;;;3.42;2.08;;;11.50;99.90;;;;;;5058623;28;20052;-52
2023/09/14 03:55:01;;;;;;;4.53;2.15;;;11.40;99.90;;;;;;5042259;28;20408;-52
2023/09/14 03:57:29;;;;;;;5.93;1.92;;;11.30;99.90;;;;;;5053592;28;20052;-55
2023/09/14 03:59:54;;;;;;;5.15;2.10;;;11.40;99.90;;;;;;5041139;28;20033;-55
2023/09/14 04:02:20;;;;;;;6.88;1.90;;;11.40;99.90;;;;;;5053069;28;20687;-55
2023/09/14 04:04:46;;;;;;;3.17;2.10;;;11.40;99.90;;;;;;5053531;28;20044;-55
2023/09/14 04:07:12;;;;;;;5.80;2.50;;;11.40;99.90;;;;;;5058854;28;20052;-56
2023/09/14 04:09:38;;;;;;;3.85;1.95;;;11.40;99.90;;;;;;5057268;28;20707;-55
2023/09/14 04:12:04;;;;;;;3.97;1.65;;;11.30;99.90;;;;;;5074021;28;20036;-56
2023/09/14 04:14:30;;;;;;;4.93;2.17;;;11.30;99.90;;;;;;5044480;28;20044;-55
2023/09/14 04:16:57;;;;;;;5.53;2.53;;;11.40;99.90;;;;;;5070475;28;20124;-56
2023/09/14 04:19:27;;;;;;;2.70;2.08;;;11.30;99.90;;;;;;5058063;28;20076;-56
2023/09/14 04:21:53;;;;;;;3.42;2.00;;;11.20;99.90;;;;;;5038700;28;20076;-55
2023/09/14 04:24:22;;;;;;;3.67;2.30;;;11.20;99.90;;;;;;5048111;28;20087;-54
2023/09/14 04:26:48;;;;;;;6.55;2.00;;;11.20;99.90;;;;;;5044137;28;20123;-56
2023/09/14 04:29:14;;;;;;;4.93;2.70;;;11.20;99.90;;;;;;5059748;28;20171;-54
2023/09/14 04:31:40;;;;;;;3.08;2.22;;;11.10;99.90;;;;;;5062873;28;20063;-55
2023/09/14 04:34:07;;;;;;;3.35;2.20;;;11.00;99.90;;;;;;5079584;28;20044;-54
2023/09/14 04:36:33;;;;;;;4.90;2.72;;;11.00;99.90;;;;;;5041960;28;20133;-55
2023/09/14 04:39:03;;;;;;;4.25;2.30;;;11.00;99.90;;;;;;5059547;28;20041;-55
2023/09/14 04:41:30;;;;;;;4.57;2.47;;;11.00;99.90;;;;;;5062470;28;20036;-56
2023/09/14 04:43:56;;;;;;;6.38;2.70;;;10.90;99.90;;;;;;5057731;28;20052;-55
2023/09/14 04:46:23;;;;;;;4.63;2.95;;;10.90;99.90;;;;;;5060797;28;20116;-55
2023/09/14 04:48:49;;;;;;;6.90;2.78;;;10.90;99.90;;;;;;5061576;28;20048;-55
2023/09/14 04:51:15;;;;;;;5.57;2.30;;;11.00;99.90;;;;;;5062608;28;20036;-55
2023/09/14 04:53:40;;;;;;;3.50;2.17;;;11.00;99.90;;;;;;5065755;28;20041;-54
2023/09/14 04:56:07;;;;;;;7.55;2.78;;;10.90;99.90;;;;;;5060540;28;20141;-55
2023/09/14 04:58:33;;;;;;;6.07;2.50;;;11.00;99.90;;;;;;5062467;28;20039;-56
2023/09/14 05:00:58;;;;;;;4.57;2.38;;;11.00;99.90;;;;;;5047998;28;20040;-55
2023/09/14 05:03:24;;;;;;;5.40;2.60;;;10.90;99.90;;;;;;5064517;28;20055;-57
2023/09/14 05:05:52;;;;;;;5.03;2.45;;;10.90;99.90;;;;;;5061070;28;20487;-55
2023/09/14 05:08:18;;;;;;;4.38;2.60;;;10.80;99.90;;;;;;5043847;28;20048;-53
2023/09/14 05:10:44;;;;;;;5.38;2.75;;;10.80;99.90;;;;;;5064656;28;20375;-55
2023/09/14 05:13:09;;;;;;;4.65;2.50;;;10.80;99.90;;;;;;5052870;28;20040;-56
2023/09/14 05:15:36;;;;;;;6.00;2.50;;;10.80;99.90;;;;;;5052713;28;20071;-55
2023/09/14 05:18:02;;;;;;;4.05;2.30;;;10.70;99.90;;;;;;5059927;28;20053;-55
2023/09/14 05:20:28;;;;;;;6.38;2.00;;;10.80;99.90;;;;;;5061743;28;20044;-54
2023/09/14 05:22:54;;;;;;;4.03;2.45;;;10.80;99.90;;;;;;5059297;28;20124;-55
2023/09/14 05:25:20;;;;;;;8.05;3.00;;;10.80;99.90;;;;;;5066008;28;20035;-52
2023/09/14 05:27:46;;;;;;;5.68;2.40;;;10.80;99.90;;;;;;5064702;28;20124;-55
2023/09/14 05:30:12;;;;;;;4.38;2.42;;;10.90;99.90;;;;;;5059477;28;20051;-55
2023/09/14 05:32:39;;;;;;;5.22;3.15;;;11.00;99.90;;;;;;5057872;28;20037;-55
2023/09/14 05:35:06;;;;;;;7.80;3.35;;;11.00;99.90;;;;;;5072803;28;20051;-56
2023/09/14 05:37:33;;;;;;;6.57;2.67;;;11.00;99.90;;;;;;5054040;28;20473;-56
2023/09/14 05:39:59;;;;;;;4.40;2.63;;;11.00;99.90;;;;;;5040904;28;20032;-55
2023/09/14 05:42:25;;;;;;;7.28;3.15;;;11.00;99.90;;;;;;5060277;28;20068;-56
2023/09/14 05:44:50;;;;;;;6.78;3.63;;;11.00;99.90;;;;;;5060731;28;20084;-53
2023/09/14 05:47:16;;;;;;;7.55;3.00;;;11.10;99.90;;;;;;5057931;28;20046;-53
2023/09/14 05:49:43;;;;;;;5.57;2.67;;;11.10;99.90;;;;;;5059499;28;20048;-55
2023/09/14 05:52:09;;;;;;;6.35;2.80;;;11.20;99.90;;;;;;5080341;28;20042;-56
2023/09/14 05:54:36;;;;;;;7.85;3.00;;;11.10;99.90;;;;;;5041254;28;20040;-56
2023/09/14 05:57:03;;;;;;;6.50;3.03;;;11.20;99.90;;;;;;5059365;28;20048;-55
2023/09/14 05:59:28;;;;;;;9.60;3.67;;;11.20;99.90;;;;;;5060316;28;20123;-53
2023/09/14 06:01:55;;;;;;;5.15;2.90;;;11.30;99.90;;;;;;5061252;28;20120;-55
2023/09/14 06:04:21;;;;;;;5.43;2.28;;;11.30;99.90;;;;;;5059845;28;20040;-55
2023/09/14 06:06:46;;;;;;;6.82;3.08;;;11.30;99.90;;;;;;5048598;28;20047;-53
2023/09/14 06:09:12;;;;;;;9.00;3.38;;;11.40;99.90;;;;;;5056686;28;20041;-55
2023/09/14 06:11:40;;;;;;;3.70;2.55;;;11.40;99.90;;;;;;5044486;28;20040;-55
2023/09/14 06:14:06;;;;;;;6.63;2.70;;;11.50;99.90;;;;;;5058269;28;20110;-55
2023/09/14 06:16:34;;;;;;;5.88;3.10;;;11.60;99.90;;;;;;5044555;28;20660;-52
2023/09/14 06:19:00;;;;;;;7.75;2.80;;;11.60;99.90;;;;;;5058759;28;20109;-55
2023/09/14 06:21:26;;;;;;;5.65;2.90;;;11.70;99.90;;;;;;5039117;28;20045;-56
2023/09/14 06:23:54;;;;;;;7.32;2.88;;;11.80;99.90;;;;;;5038794;28;20044;-52
2023/09/14 06:26:23;;;;;;;8.15;3.47;;;11.80;99.90;;;;;;5044679;28;20492;-54
2023/09/14 06:28:48;;;;;;;7.75;3.85;;;11.90;99.90;;;;;;5064560;28;20036;-52
2023/09/14 06:31:14;;;;;;;7.97;3.08;;;11.90;99.90;;;;;;5065482;28;20047;-53
2023/09/14 06:33:41;;;;;;;6.25;2.50;;;12.00;99.90;;;;;;5058996;28;20039;-55
2023/09/14 06:36:06;;;;;;;6.55;3.17;;;12.00;99.90;;;;;;5022545;28;20098;-54
2023/09/14 06:38:32;;;;;;;9.65;3.13;;;12.10;99.90;;;;;;5060708;28;20080;-54
2023/09/14 06:40:59;;;;;;;8.35;2.80;;;12.20;99.90;;;;;;5053163;28;20372;-55
2023/09/14 06:43:25;;;;;;;4.50;2.67;;;12.30;99.90;;;;;;5057994;28;20052;-55
2023/09/14 06:45:50;;;;;;;5.97;2.95;;;12.40;99.90;;;;;;5054932;28;20033;-55
2023/09/14 06:48:16;;;;;;;6.65;2.65;;;12.50;99.90;;;;;;5061001;28;20033;-56
2023/09/14 06:50:42;;;;;;;5.97;2.70;;;12.60;99.90;;;;;;5056371;28;20132;-53
2023/09/14 06:53:09;;;;;;;5.03;2.47;;;12.70;99.90;;;;;;5056401;28;20110;-54
2023/09/14 06:55:38;;;;;;;7.38;2.53;;;12.80;99.90;;;;;;5057476;28;20036;-55
2023/09/14 06:58:04;;;;;;;7.50;2.65;;;12.90;99.90;;;;;;5039507;28;20048;-55
2023/09/14 07:00:32;;;;;;;7.85;2.90;;;13.00;99.90;;;;;;5050898;28;20083;-56
2023/09/14 07:02:58;;;;;;;7.82;2.65;;;13.10;99.90;;;;;;5060390;28;20424;-52
2023/09/14 07:05:24;;;;;;;9.55;2.42;;;13.20;99.90;;;;;;5059740;28;20047;-55
2023/09/14 07:07:50;;;;;;;8.00;2.50;;;13.30;99.90;;;;;;5013018;28;22608;-56
2023/09/14 07:10:15;;;;;;;4.68;2.20;;;13.50;99.90;;;;;;5044359;28;20178;-56
2023/09/14 07:12:41;;;;;;;6.35;2.10;;;13.60;99.90;;;;;;5055794;28;20565;-56
2023/09/14 07:15:07;;;;;;;6.20;2.22;;;13.80;99.90;;;;;;5053897;28;20033;-56
2023/09/14 07:17:33;;;;;;;7.75;2.58;;;13.90;99.90;;;;;;5059954;28;20040;-56
2023/09/14 07:19:59;;;;;;;5.82;2.05;;;14.10;99.90;;;;;;5053432;28;20169;-57
2023/09/14 07:22:24;;;;;;;7.47;2.75;;;14.20;99.90;;;;;;5050367;28;20499;-56
2023/09/14 07:24:50;;;;;;;7.13;1.65;;;14.40;99.90;;;;;;5035183;28;20044;-55
2023/09/14 07:27:16;;;;;;;3.88;1.55;;;14.50;99.90;;;;;;5060095;28;20189;-57
2023/09/14 07:29:42;;;;;;;2.40;1.30;;;14.60;99.90;;;;;;5051171;28;20453;-57
2023/09/14 07:32:09;;;;;;;5.97;1.88;;;14.70;99.90;;;;;;5059278;28;20178;-57
2023/09/14 07:34:34;;;;;;;6.38;1.77;;;14.90;99.90;;;;;;5059002;28;20125;-56
2023/09/14 07:37:00;;;;;;;6.60;1.67;;;15.00;99.90;;;;;;5060387;28;20063;-56
2023/09/14 07:39:26;;;;;;;6.30;1.77;;;15.10;99.90;;;;;;5045929;28;20052;-57
2023/09/14 07:41:55;;;;;;;5.20;1.88;;;15.10;99.90;;;;;;5064227;28;20103;-57
2023/09/14 07:44:21;;;;;;;6.72;1.80;;;15.10;99.90;;;;;;5066208;28;20552;-56
2023/09/14 07:46:47;;;;;;;5.65;1.60;;;15.30;99.90;;;;;;5063844;28;20052;-56
2023/09/14 07:49:13;;;;;;;3.80;1.85;;;15.40;99.90;;;;;;5046664;28;20115;-56
2023/09/14 07:51:38;;;;;;;6.72;1.98;;;15.60;99.90;;;;;;5066002;28;20399;-56
2023/09/14 07:54:04;;;;;;;7.43;1.88;;;15.80;99.90;;;;;;5045484;28;20154;-56
2023/09/14 07:56:30;;;;;;;5.95;2.20;;;16.00;99.90;;;;;;5064787;28;20028;-56
2023/09/14 07:58:56;;;;;;;7.40;1.60;;;16.00;99.90;;;;;;5061505;28;20068;-56
2023/09/14 08:01:22;;;;;;;6.22;1.70;;;16.10;99.90;;;;;;5067239;28;20041;-57
2023/09/14 08:03:49;;;;;;;6.13;1.80;;;16.00;99.90;;;;;;5046993;28;20029;-57
2023/09/14 08:06:18;;;;;;;5.18;1.60;;;16.00;99.90;;;;;;5061181;28;20051;-55
2023/09/14 08:08:47;;;;;;;7.43;1.77;;;16.00;99.90;;;;;;5060191;28;20063;-56
2023/09/14 08:11:12;;;;;;;4.03;1.50;;;16.00;99.90;;;;;;5062482;28;20037;-56
2023/09/14 08:13:38;;;;;;;6.57;1.85;;;16.00;99.90;;;;;;5064785;28;20043;-57
2023/09/14 08:16:05;;;;;;;5.13;1.70;;;16.00;99.90;;;;;;5060332;28;20037;-56
2023/09/14 08:18:30;;;;;;;9.38;2.08;;;16.10;99.90;;;;;;5063086;28;20653;-56
2023/09/14 08:20:56;;;;;;;5.70;1.50;;;16.10;99.90;;;;;;5057785;28;20058;-56
2023/09/14 08:23:22;;;;;;;8.10;1.80;;;16.10;99.90;;;;;;5047306;28;20127;-53
2023/09/14 08:25:48;;;;;;;9.05;2.00;;;16.20;99.90;;;;;;5062480;28;20488;-56
2023/09/14 08:28:17;;;;;;;10.88;2.38;;;16.30;99.90;;;;;;5062406;28;20045;-57
2023/09/14 08:30:44;;;;;;;9.32;2.53;;;16.30;99.90;;;;;;5054146;28;20051;-56
2023/09/14 08:33:11;;;;;;;6.63;2.03;;;16.40;99.90;;;;;;5055492;28;20059;-56
2023/09/14 08:35:37;;;;;;;6.10;1.65;;;16.40;99.90;;;;;;5061418;28;20040;-56
2023/09/14 08:38:06;;;;;;;7.65;2.45;;;16.50;99.90;;;;;;5056999;28;20588;-56
2023/09/14 08:40:33;;;;;;;7.30;1.95;;;16.60;99.90;;;;;;5053599;28;20048;-56
2023/09/14 08:43:00;;;;;;;8.00;1.95;;;16.60;99.90;;;;;;5056622;28;20520;-54
2023/09/14 08:45:31;;;;;;;6.20;2.13;;;16.70;99.90;;;;;;5041420;28;20098;-56
2023/09/14 08:47:59;;;;;;;7.13;2.20;;;16.80;99.90;;;;;;5058595;28;20048;-56
2023/09/14 08:50:27;;;;;;;8.57;1.73;;;17.00;99.90;;;;;;5059037;28;20039;-56
2023/09/14 08:52:53;;;;;;;10.05;2.15;;;17.10;99.90;;;;;;5033883;28;20082;-56
2023/09/14 08:55:21;;;;;;;8.63;1.92;;;17.20;99.90;;;;;;5058503;28;20127;-57
2023/09/14 08:57:47;;;;;;;8.20;2.55;;;17.20;99.90;;;;;;5040410;28;20075;-56
2023/09/14 09:00:17;;;;;;;7.57;2.45;;;17.30;99.90;;;;;;5059271;28;20047;-56
2023/09/14 09:02:43;;;;;;;8.50;2.00;;;17.30;99.90;;;;;;5062087;28;20049;-57
2023/09/14 09:05:11;;;;;;;7.65;2.08;;;17.40;99.90;;;;;;5053626;28;20048;-56
2023/09/14 09:07:38;;;;;;;7.30;1.75;;;17.50;99.90;;;;;;5041812;28;20041;-56
2023/09/14 09:10:05;;;;;;;8.43;1.55;;;17.60;99.90;;;;;;5061213;28;20044;-54
2023/09/14 09:12:31;;;;;;;8.77;1.88;;;17.70;99.90;;;;;;5064332;28;20045;-57
2023/09/14 09:15:00;;;;;;;6.82;1.65;;;17.80;99.90;;;;;;5031246;28;20576;-56
2023/09/14 09:17:26;;;;;;;8.13;1.90;;;17.90;99.90;;;;;;5065410;28;20403;-56
2023/09/14 09:19:53;;;;;;;9.52;2.38;;;17.90;99.90;;;;;;5060847;28;20048;-56
2023/09/14 09:22:19;;;;;;;7.88;1.90;;;18.10;99.90;;;;;;5050080;28;20115;-57
2023/09/14 09:24:45;;;;;;;9.48;1.90;;;18.20;99.90;;;;;;5063383;28;20033;-56
2023/09/14 09:27:27;;;;;;;6.05;1.70;;;18.40;99.90;;;;;;5064458;28;20051;-57
2023/09/14 09:30:00;;;;;;;6.82;2.08;;;18.40;99.90;;;;;;5063922;28;20053;-58
2023/09/14 09:32:25;;;;;;;6.22;2.53;;;18.40;99.90;;;;;;5061669;28;20190;-57
2023/09/14 09:34:52;;;;;;;6.13;1.88;;;18.50;99.90;;;;;;5064554;28;20569;-57
2023/09/14 09:37:18;;;;;;;5.15;2.00;;;18.60;99.90;;;;;;5062175;28;20395;-55
2023/09/14 09:39:44;;;;;;;8.27;2.00;;;18.60;99.90;;;;;;5060771;28;20044;-57
2023/09/14 09:42:13;;;;;;;5.63;2.17;;;18.60;99.90;;;;;;5043745;28;20073;-57
2023/09/14 09:44:39;;;;;;;7.07;2.05;;;18.60;99.90;;;;;;5061436;28;20041;-54
2023/09/14 09:47:09;;;;;;;6.18;2.10;;;18.70;99.90;;;;;;5060882;28;20479;-57
2023/09/14 09:49:34;;;;;;;6.63;1.90;;;18.80;99.90;;;;;;5060180;28;20041;-57
2023/09/14 09:52:00;;;;;;;8.05;2.45;;;19.00;99.90;;;;;;5059482;28;20043;-58
2023/09/14 09:54:27;;;;;;;7.30;2.30;;;19.10;99.90;;;;;;5061870;28;20040;-56
2023/09/14 09:56:53;;;;;;;5.78;1.75;;;19.20;99.90;;;;;;5054965;28;20066;-56
2023/09/14 09:59:19;;;;;;;5.43;2.08;;;19.40;99.70;;;;;;5058642;28;20037;-56
2023/09/14 10:01:46;;;;;;;6.28;1.90;;;19.40;99.20;;;;;;5065096;28;20090;-56
2023/09/14 10:04:17;;;;;;;6.80;2.42;;;19.40;99.30;;;;;;5061363;28;20090;-57
2023/09/14 10:06:55;;;;;;;7.75;1.80;;;19.30;98.80;;;;;;5062558;28;20052;-57
2023/09/14 10:09:24;;;;;;;7.95;2.05;;;19.30;98.90;;;;;;5073582;28;20731;-57
2023/09/14 10:11:51;;;;;;;7.15;2.38;;;19.40;99.40;;;;;;5063804;28;20123;-57
2023/09/14 10:14:24;;;;;;;12.48;3.05;;;19.40;99.30;;;;;;5058827;28;20039;-56
2023/09/14 10:16:54;;;;;;;6.70;2.50;;;19.40;99.30;;;;;;5061731;28;20732;-57
2023/09/14 10:19:21;;;;;;;10.73;2.33;;;19.40;99.50;;;;;;5061842;28;20119;-57
2023/09/14 10:21:48;;;;;;;9.90;2.70;;;19.50;99.70;;;;;;5060748;28;20048;-57
2023/09/14 10:24:15;;;;;;;6.43;2.85;;;19.60;99.80;;;;;;5060989;28;20094;-56
2023/09/14 10:26:43;;;;;;;8.30;2.72;;;19.70;99.70;;;;;;5062235;28;20052;-57
2023/09/14 10:29:09;;;;;;;11.48;4.00;;;19.70;99.60;;;;;;5061670;28;20032;-57
2023/09/14 10:31:36;;;;;;;8.95;2.88;;;19.80;99.60;;;;;;5062601;28;20036;-57
2023/09/14 10:34:03;;;;;;;13.32;3.40;;;19.90;99.70;;;;;;5060432;28;20127;-57
2023/09/14 10:36:30;;;;;;;10.77;3.78;;;20.10;99.50;;;;;;5058471;28;20037;-57
2023/09/14 10:38:59;;;;;;;12.70;4.78;;;20.10;99.20;;;;;;5058052;28;20045;-57
2023/09/14 10:41:25;;;;;;;14.70;5.20;;;20.20;98.90;;;;;;5049940;28;20045;-57
2023/09/14 10:43:53;;;;;;;15.15;4.75;;;20.30;98.80;;;;;;5045984;28;20157;-57
2023/09/14 10:46:24;;;;;;;12.40;5.38;;;20.40;98.50;;;;;;5041239;28;20048;-57
2023/09/14 10:48:50;;;;;;;11.27;4.82;;;20.40;98.50;;;;;;5059035;28;20045;-57
2023/09/14 10:51:17;;;;;;;8.88;3.50;;;20.40;98.50;;;;;;5054900;28;20083;-57
2023/09/14 10:53:43;;;;;;;9.20;3.67;;;20.60;98.50;;;;;;5057832;28;20454;-57
2023/09/14 10:56:23;;;;;;;10.60;3.55;;;20.80;98.50;;;;;;5051969;28;20116;-56
2023/09/14 10:58:53;;;;;;;7.00;2.88;;;21.00;98.30;;;;;;5058545;28;21382;-56
2023/09/14 11:01:24;;;;;;;12.73;3.28;;;21.10;97.90;;;;;;5056532;28;20123;-57
2023/09/14 11:04:11;;;;;;;9.77;3.50;;;21.20;97.70;;;;;;5057130;28;20414;-55
2023/09/14 11:06:48;;;;;;;10.52;3.88;;;21.30;97.50;;;;;;5072876;28;20037;-56
2023/09/14 11:09:15;;;;;;;12.55;4.35;;;21.20;97.50;;;;;;5054100;28;20163;-55
2023/09/14 11:11:46;;;;;;;9.95;3.47;;;21.40;97.50;;;;;;5041263;28;20047;-57
2023/09/14 11:14:14;;;;;;;10.93;3.58;;;21.50;97.60;;;;;;5060324;28;20036;-57
2023/09/14 11:16:49;;;;;;;9.50;4.35;;;21.60;97.40;;;;;;5054542;28;20040;-57
2023/09/14 11:19:30;;;;;;;8.30;3.10;;;21.70;97.30;;;;;;5057583;28;20090;-54
2023/09/14 11:22:05;;;;;;;10.40;4.32;;;21.80;96.90;;;;;;5053679;28;20044;-58
2023/09/14 11:24:36;;;;;;;8.82;3.33;;;21.80;97.00;;;;;;5056340;28;20037;-56
2023/09/14 11:27:02;;;;;;;9.38;4.00;;;21.80;96.80;;;;;;5060594;28;20048;-57
2023/09/14 11:29:31;;;;;;;9.57;2.83;;;21.90;96.90;;;;;;5072395;28;20105;-57
2023/09/14 11:32:02;;;;;;;9.13;2.90;;;21.90;96.40;;;;;;5057192;28;20111;-57
2023/09/14 11:34:32;;;;;;;9.43;3.15;;;22.00;96.30;;;;;;5060054;28;20400;-58
2023/09/14 11:36:59;;;;;;;9.35;3.00;;;21.90;96.20;;;;;;5057235;28;20047;-54
2023/09/14 11:39:25;;;;;;;7.88;3.22;;;21.90;96.30;;;;;;5052271;28;20047;-58
2023/09/14 11:41:52;;;;;;;9.25;2.95;;;21.90;96.50;;;;;;5051186;28;20040;-58
2023/09/14 11:44:18;;;;;;;9.48;3.35;;;22.10;96.30;;;;;;5037767;28;20152;-58
2023/09/14 11:46:47;;;;;;;9.80;2.90;;;22.20;96.20;;;;;;5035268;28;20055;-58
2023/09/14 11:49:15;;;;;;;10.23;2.95;;;22.40;95.80;;;;;;5051906;28;20048;-58
2023/09/14 11:51:41;;;;;;;7.18;2.55;;;22.40;95.60;;;;;;5052347;28;20033;-57
2023/09/14 11:54:10;;;;;;;9.85;2.47;;;22.50;95.80;;;;;;5059014;28;20082;-58
2023/09/14 11:56:36;;;;;;;7.03;2.95;;;22.60;95.50;;;;;;5042459;28;20045;-59
2023/09/14 11:59:02;;;;;;;6.28;2.45;;;22.60;95.20;;;;;;5060026;28;20659;-58
2023/09/14 12:01:32;;;;;;;9.80;2.90;;;22.60;94.90;;;;;;5061933;28;20047;-57
2023/09/14 12:03:59;;;;;;;8.18;2.63;;;22.60;94.70;;;;;;5054088;28;20045;-57
2023/09/14 12:06:28;;;;;;;8.30;2.47;;;22.70;94.80;;;;;;5036821;28;20186;-58
2023/09/14 12:08:54;;;;;;;7.50;2.58;;;22.70;94.50;;;;;;5057712;28;20085;-56
2023/09/14 12:11:22;;;;;;;6.82;2.53;;;22.90;94.80;;;;;;5053634;28;20123;-57
2023/09/14 12:13:56;;;;;;;6.28;2.50;;;23.00;94.60;;;;;;5056945;28;20077;-55
2023/09/14 12:16:24;;;;;;;6.95;2.42;;;23.00;93.80;;;;;;5049903;28;20036;-58
2023/09/14 12:18:52;;;;;;;6.20;2.40;;;23.00;94.30;;;;;;5041162;28;20726;-61
2023/09/14 12:21:19;;;;;;;6.78;2.60;;;23.00;94.00;;;;;;5045126;28;20080;-58
2023/09/14 12:23:48;;;;;;;10.48;2.72;;;23.10;93.60;;;;;;5066764;28;20044;-58
2023/09/14 12:26:16;;;;;;;7.97;2.45;;;23.10;93.80;;;;;;5064162;28;20523;-56
2023/09/14 12:28:57;;;;;;;7.85;2.50;;;23.20;93.70;;;;;;5076898;28;20041;-58
2023/09/14 12:31:25;;;;;;;7.00;2.50;;;23.30;93.40;;;;;;5052184;28;20036;-58
2023/09/14 12:33:52;;;;;;;7.72;2.67;;;23.40;93.70;;;;;;5059638;28;20558;-58
2023/09/14 12:36:18;;;;;;;10.55;2.70;;;23.60;94.00;;;;;;5055770;28;20047;-59
2023/09/14 12:38:47;;;;;;;5.13;2.30;;;23.70;93.40;;;;;;5052327;28;20040;-58
2023/09/14 12:41:14;;;;;;;7.45;2.97;;;23.70;93.00;;;;;;5066921;28;20186;-58
2023/09/14 12:43:41;;;;;;;9.00;2.53;;;23.80;92.80;;;;;;5064069;28;20039;-58
2023/09/14 12:46:07;;;;;;;9.45;2.67;;;23.80;92.70;;;;;;5065046;28;20040;-57